sensor_id;sensor_type;location;lat;lon;timestamp;P1;durP1;ratioP1;P2;durP2;ratioP2
60018;SDS011;45870;42.528;26.740;2022-10-23T00:03:42;5.05;;;1.90;;
60018;SDS011;45870;42.528;26.740;2022-10-23T00:06:10;5.82;;;2.35;;
60018;SDS011;45870;42.528;26.740;2022-10-23T00:08:37;3.90;;;2.28;;
60018;SDS011;45870;42.528;26.740;2022-10-23T00:11:07;4.30;;;2.47;;
60018;SDS011;45870;42.528;26.740;2022-10-23T00:13:34;6.70;;;2.65;;
60018;SDS011;45870;42.528;26.740;2022-10-23T00:16:00;9.10;;;2.65;;
60018;SDS011;45870;42.528;26.740;2022-10-23T00:18:25;4.25;;;2.72;;
60018;SDS011;45870;42.528;26.740;2022-10-23T00:20:51;6.90;;;3.42;;
60018;SDS011;45870;42.528;26.740;2022-10-23T00:23:17;8.82;;;3.35;;
60018;SDS011;45870;42.528;26.740;2022-10-23T00:25:42;6.53;;;2.42;;
60018;SDS011;45870;42.528;26.740;2022-10-23T00:28:09;5.78;;;2.58;;
60018;SDS011;45870;42.528;26.740;2022-10-23T00:30:34;6.00;;;2.85;;
60018;SDS011;45870;42.528;26.740;2022-10-23T00:33:01;6.72;;;3.55;;
60018;SDS011;45870;42.528;26.740;2022-10-23T00:35:26;3.97;;;2.25;;
60018;SDS011;45870;42.528;26.740;2022-10-23T00:37:52;8.80;;;3.83;;
60018;SDS011;45870;42.528;26.740;2022-10-23T00:40:18;4.80;;;2.30;;
60018;SDS011;45870;42.528;26.740;2022-10-23T00:42:44;5.40;;;2.33;;
60018;SDS011;45870;42.528;26.740;2022-10-23T00:47:38;3.42;;;1.75;;
60018;SDS011;45870;42.528;26.740;2022-10-23T00:50:04;9.43;;;2.70;;
60018;SDS011;45870;42.528;26.740;2022-10-23T00:52:31;6.82;;;2.85;;
60018;SDS011;45870;42.528;26.740;2022-10-23T00:54:57;5.40;;;2.03;;
60018;SDS011;45870;42.528;26.740;2022-10-23T00:57:23;29.27;;;2.63;;
60018;SDS011;45870;42.528;26.740;2022-10-23T00:59:49;9.20;;;2.80;;
60018;SDS011;45870;42.528;26.740;2022-10-23T01:02:15;5.07;;;2.38;;
60018;SDS011;45870;42.528;26.740;2022-10-23T01:04:41;7.55;;;2.40;;
60018;SDS011;45870;42.528;26.740;2022-10-23T01:07:14;6.32;;;3.30;;
60018;SDS011;45870;42.528;26.740;2022-10-23T01:09:46;9.85;;;3.97;;
60018;SDS011;45870;42.528;26.740;2022-10-23T01:15:15;10.43;;;3.60;;
60018;SDS011;45870;42.528;26.740;2022-10-23T01:31:52;6.78;;;2.92;;
60018;SDS011;45870;42.528;26.740;2022-10-23T01:34:27;10.05;;;4.03;;
60018;SDS011;45870;42.528;26.740;2022-10-23T01:39:25;4.47;;;3.20;;
60018;SDS011;45870;42.528;26.740;2022-10-23T01:42:07;6.32;;;2.33;;
60018;SDS011;45870;42.528;26.740;2022-10-23T01:44:40;7.50;;;3.60;;
60018;SDS011;45870;42.528;26.740;2022-10-23T01:47:17;7.40;;;2.92;;
60018;SDS011;45870;42.528;26.740;2022-10-23T01:49:47;4.28;;;1.90;;
60018;SDS011;45870;42.528;26.740;2022-10-23T01:52:13;7.97;;;3.30;;
60018;SDS011;45870;42.528;26.740;2022-10-23T01:54:42;4.80;;;2.95;;
60018;SDS011;45870;42.528;26.740;2022-10-23T01:57:12;2.95;;;2.08;;
60018;SDS011;45870;42.528;26.740;2022-10-23T01:59:43;5.28;;;2.90;;
60018;SDS011;45870;42.528;26.740;2022-10-23T02:02:14;6.15;;;2.70;;
60018;SDS011;45870;42.528;26.740;2022-10-23T02:04:46;9.65;;;3.45;;
60018;SDS011;45870;42.528;26.740;2022-10-23T02:07:19;5.65;;;2.75;;
60018;SDS011;45870;42.528;26.740;2022-10-23T02:09:46;4.72;;;2.38;;
60018;SDS011;45870;42.528;26.740;2022-10-23T02:12:13;8.55;;;2.35;;
60018;SDS011;45870;42.528;26.740;2022-10-23T02:14:52;7.57;;;2.15;;
60018;SDS011;45870;42.528;26.740;2022-10-23T02:17:27;8.10;;;3.10;;
60018;SDS011;45870;42.528;26.740;2022-10-23T02:20:12;4.63;;;1.88;;
60018;SDS011;45870;42.528;26.740;2022-10-23T02:22:58;5.53;;;2.63;;
60018;SDS011;45870;42.528;26.740;2022-10-23T02:25:35;8.40;;;2.28;;
60018;SDS011;45870;42.528;26.740;2022-10-23T02:28:09;7.43;;;3.63;;
60018;SDS011;45870;42.528;26.740;2022-10-23T02:30:42;5.63;;;2.20;;
60018;SDS011;45870;42.528;26.740;2022-10-23T02:33:10;4.38;;;2.00;;
60018;SDS011;45870;42.528;26.740;2022-10-23T02:35:38;5.60;;;3.10;;
60018;SDS011;45870;42.528;26.740;2022-10-23T02:38:25;10.85;;;2.30;;
60018;SDS011;45870;42.528;26.740;2022-10-23T02:41:11;5.38;;;1.88;;
60018;SDS011;45870;42.528;26.740;2022-10-23T02:44:06;3.42;;;1.40;;
60018;SDS011;45870;42.528;26.740;2022-10-23T02:46:45;5.90;;;1.73;;
60018;SDS011;45870;42.528;26.740;2022-10-23T02:49:37;5.03;;;2.50;;
60018;SDS011;45870;42.528;26.740;2022-10-23T02:52:26;3.88;;;2.30;;
60018;SDS011;45870;42.528;26.740;2022-10-23T02:57:45;7.40;;;2.88;;
60018;SDS011;45870;42.528;26.740;2022-10-23T03:00:32;4.82;;;2.33;;
60018;SDS011;45870;42.528;26.740;2022-10-23T03:03:08;3.75;;;1.58;;
60018;SDS011;45870;42.528;26.740;2022-10-23T03:05:38;3.38;;;1.90;;
60018;SDS011;45870;42.528;26.740;2022-10-23T03:08:08;8.60;;;2.85;;
60018;SDS011;45870;42.528;26.740;2022-10-23T03:10:36;4.53;;;1.92;;
60018;SDS011;45870;42.528;26.740;2022-10-23T03:13:02;5.57;;;2.15;;
60018;SDS011;45870;42.528;26.740;2022-10-23T03:15:28;5.15;;;2.08;;
60018;SDS011;45870;42.528;26.740;2022-10-23T03:17:53;3.45;;;1.75;;
60018;SDS011;45870;42.528;26.740;2022-10-23T03:20:19;3.78;;;1.70;;
60018;SDS011;45870;42.528;26.740;2022-10-23T03:22:45;4.40;;;1.50;;
60018;SDS011;45870;42.528;26.740;2022-10-23T03:25:11;6.90;;;2.30;;
60018;SDS011;45870;42.528;26.740;2022-10-23T03:27:36;4.03;;;2.58;;
60018;SDS011;45870;42.528;26.740;2022-10-23T03:30:02;5.55;;;2.17;;
60018;SDS011;45870;42.528;26.740;2022-10-23T03:32:29;4.00;;;1.73;;
60018;SDS011;45870;42.528;26.740;2022-10-23T03:34:54;3.88;;;2.00;;
60018;SDS011;45870;42.528;26.740;2022-10-23T03:37:20;3.13;;;1.70;;
60018;SDS011;45870;42.528;26.740;2022-10-23T03:39:46;8.30;;;2.40;;
60018;SDS011;45870;42.528;26.740;2022-10-23T03:42:12;3.30;;;1.83;;
60018;SDS011;45870;42.528;26.740;2022-10-23T03:44:37;7.07;;;2.38;;
60018;SDS011;45870;42.528;26.740;2022-10-23T03:47:03;4.38;;;2.33;;
60018;SDS011;45870;42.528;26.740;2022-10-23T03:49:29;5.93;;;2.97;;
60018;SDS011;45870;42.528;26.740;2022-10-23T03:51:55;3.03;;;1.52;;
60018;SDS011;45870;42.528;26.740;2022-10-23T03:54:21;2.70;;;1.58;;
60018;SDS011;45870;42.528;26.740;2022-10-23T03:56:49;5.18;;;1.85;;
60018;SDS011;45870;42.528;26.740;2022-10-23T03:59:15;4.63;;;1.70;;
60018;SDS011;45870;42.528;26.740;2022-10-23T04:01:41;4.07;;;2.38;;
60018;SDS011;45870;42.528;26.740;2022-10-23T04:04:07;3.15;;;1.35;;
60018;SDS011;45870;42.528;26.740;2022-10-23T04:06:33;4.85;;;2.13;;
60018;SDS011;45870;42.528;26.740;2022-10-23T04:08:59;3.60;;;1.55;;
60018;SDS011;45870;42.528;26.740;2022-10-23T04:11:25;3.45;;;2.03;;
60018;SDS011;45870;42.528;26.740;2022-10-23T04:13:50;2.70;;;1.38;;
60018;SDS011;45870;42.528;26.740;2022-10-23T04:16:16;6.47;;;2.42;;
60018;SDS011;45870;42.528;26.740;2022-10-23T04:18:43;4.07;;;2.42;;
60018;SDS011;45870;42.528;26.740;2022-10-23T04:21:09;3.50;;;1.98;;
60018;SDS011;45870;42.528;26.740;2022-10-23T04:23:35;2.83;;;1.52;;
60018;SDS011;45870;42.528;26.740;2022-10-23T04:26:01;5.85;;;1.77;;
60018;SDS011;45870;42.528;26.740;2022-10-23T04:28:27;5.07;;;2.45;;
60018;SDS011;45870;42.528;26.740;2022-10-23T04:30:52;4.78;;;1.50;;
60018;SDS011;45870;42.528;26.740;2022-10-23T04:33:18;3.20;;;1.65;;
60018;SDS011;45870;42.528;26.740;2022-10-23T04:35:45;3.15;;;2.25;;
60018;SDS011;45870;42.528;26.740;2022-10-23T04:38:10;5.28;;;2.22;;
60018;SDS011;45870;42.528;26.740;2022-10-23T04:40:36;7.38;;;2.30;;
60018;SDS011;45870;42.528;26.740;2022-10-23T04:43:03;5.55;;;2.45;;
60018;SDS011;45870;42.528;26.740;2022-10-23T04:45:29;5.18;;;2.55;;
60018;SDS011;45870;42.528;26.740;2022-10-23T04:47:54;4.32;;;2.05;;
60018;SDS011;45870;42.528;26.740;2022-10-23T04:50:20;3.25;;;2.00;;
60018;SDS011;45870;42.528;26.740;2022-10-23T04:52:47;3.90;;;1.50;;
60018;SDS011;45870;42.528;26.740;2022-10-23T04:55:12;5.55;;;1.98;;
60018;SDS011;45870;42.528;26.740;2022-10-23T04:57:39;8.13;;;3.67;;
60018;SDS011;45870;42.528;26.740;2022-10-23T05:00:06;4.07;;;2.22;;
60018;SDS011;45870;42.528;26.740;2022-10-23T05:02:34;6.50;;;2.72;;
60018;SDS011;45870;42.528;26.740;2022-10-23T05:05:00;5.28;;;2.40;;
60018;SDS011;45870;42.528;26.740;2022-10-23T05:07:26;5.32;;;3.17;;
60018;SDS011;45870;42.528;26.740;2022-10-23T05:09:51;3.40;;;1.92;;
60018;SDS011;45870;42.528;26.740;2022-10-23T05:12:17;3.78;;;2.03;;
60018;SDS011;45870;42.528;26.740;2022-10-23T05:14:44;6.85;;;2.35;;
60018;SDS011;45870;42.528;26.740;2022-10-23T05:17:14;4.90;;;2.10;;
60018;SDS011;45870;42.528;26.740;2022-10-23T05:19:49;3.88;;;2.13;;
60018;SDS011;45870;42.528;26.740;2022-10-23T05:22:18;5.60;;;2.83;;
60018;SDS011;45870;42.528;26.740;2022-10-23T05:24:46;4.10;;;2.08;;
60018;SDS011;45870;42.528;26.740;2022-10-23T05:27:13;5.50;;;2.33;;
60018;SDS011;45870;42.528;26.740;2022-10-23T05:29:39;5.47;;;2.67;;
60018;SDS011;45870;42.528;26.740;2022-10-23T05:32:05;3.97;;;1.73;;
60018;SDS011;45870;42.528;26.740;2022-10-23T05:34:34;8.00;;;2.35;;
60018;SDS011;45870;42.528;26.740;2022-10-23T05:37:02;4.28;;;2.55;;
60018;SDS011;45870;42.528;26.740;2022-10-23T05:39:31;6.07;;;2.10;;
60018;SDS011;45870;42.528;26.740;2022-10-23T05:41:57;3.85;;;2.45;;
60018;SDS011;45870;42.528;26.740;2022-10-23T05:44:22;4.53;;;3.00;;
60018;SDS011;45870;42.528;26.740;2022-10-23T05:46:52;6.43;;;2.13;;
60018;SDS011;45870;42.528;26.740;2022-10-23T05:49:18;5.45;;;2.45;;
60018;SDS011;45870;42.528;26.740;2022-10-23T05:51:44;6.03;;;2.75;;
60018;SDS011;45870;42.528;26.740;2022-10-23T05:54:10;8.40;;;3.47;;
60018;SDS011;45870;42.528;26.740;2022-10-23T05:56:37;4.45;;;2.30;;
60018;SDS011;45870;42.528;26.740;2022-10-23T05:59:07;4.53;;;2.10;;
60018;SDS011;45870;42.528;26.740;2022-10-23T06:01:33;10.27;;;2.55;;
60018;SDS011;45870;42.528;26.740;2022-10-23T06:03:59;3.63;;;1.90;;
60018;SDS011;45870;42.528;26.740;2022-10-23T06:06:25;5.28;;;2.75;;
60018;SDS011;45870;42.528;26.740;2022-10-23T06:08:51;6.97;;;3.22;;
60018;SDS011;45870;42.528;26.740;2022-10-23T06:11:17;5.70;;;2.33;;
60018;SDS011;45870;42.528;26.740;2022-10-23T06:13:43;6.25;;;2.40;;
60018;SDS011;45870;42.528;26.740;2022-10-23T06:16:17;5.38;;;2.42;;
60018;SDS011;45870;42.528;26.740;2022-10-23T06:18:44;6.47;;;2.55;;
60018;SDS011;45870;42.528;26.740;2022-10-23T06:21:11;5.30;;;2.60;;
60018;SDS011;45870;42.528;26.740;2022-10-23T06:23:37;10.05;;;2.72;;
60018;SDS011;45870;42.528;26.740;2022-10-23T06:26:05;4.45;;;2.33;;
60018;SDS011;45870;42.528;26.740;2022-10-23T06:28:32;6.10;;;2.45;;
60018;SDS011;45870;42.528;26.740;2022-10-23T06:30:58;5.78;;;2.55;;
60018;SDS011;45870;42.528;26.740;2022-10-23T06:33:24;6.60;;;2.72;;
60018;SDS011;45870;42.528;26.740;2022-10-23T06:35:49;9.32;;;2.90;;
60018;SDS011;45870;42.528;26.740;2022-10-23T06:38:15;5.97;;;3.15;;
60018;SDS011;45870;42.528;26.740;2022-10-23T06:40:41;5.97;;;2.70;;
60018;SDS011;45870;42.528;26.740;2022-10-23T06:43:06;4.32;;;2.58;;
60018;SDS011;45870;42.528;26.740;2022-10-23T06:45:32;3.78;;;1.88;;
60018;SDS011;45870;42.528;26.740;2022-10-23T06:47:59;3.20;;;2.05;;
60018;SDS011;45870;42.528;26.740;2022-10-23T06:50:25;6.65;;;2.53;;
60018;SDS011;45870;42.528;26.740;2022-10-23T06:52:55;6.82;;;2.42;;
60018;SDS011;45870;42.528;26.740;2022-10-23T06:55:21;7.68;;;3.10;;
60018;SDS011;45870;42.528;26.740;2022-10-23T06:57:47;4.65;;;2.25;;
60018;SDS011;45870;42.528;26.740;2022-10-23T07:00:13;4.90;;;1.83;;
60018;SDS011;45870;42.528;26.740;2022-10-23T07:02:39;4.78;;;2.17;;
60018;SDS011;45870;42.528;26.740;2022-10-23T07:05:04;3.13;;;1.42;;
60018;SDS011;45870;42.528;26.740;2022-10-23T07:07:31;5.85;;;1.90;;
60018;SDS011;45870;42.528;26.740;2022-10-23T07:09:57;3.28;;;1.40;;
60018;SDS011;45870;42.528;26.740;2022-10-23T07:12:23;2.80;;;1.40;;
60018;SDS011;45870;42.528;26.740;2022-10-23T07:14:49;3.88;;;1.80;;
60018;SDS011;45870;42.528;26.740;2022-10-23T07:17:14;5.82;;;2.60;;
60018;SDS011;45870;42.528;26.740;2022-10-23T07:19:40;3.63;;;1.63;;
60018;SDS011;45870;42.528;26.740;2022-10-23T07:22:06;3.40;;;2.00;;
60018;SDS011;45870;42.528;26.740;2022-10-23T07:24:31;4.45;;;1.90;;
60018;SDS011;45870;42.528;26.740;2022-10-23T07:27:01;3.63;;;1.92;;
60018;SDS011;45870;42.528;26.740;2022-10-23T07:29:27;4.80;;;2.20;;
60018;SDS011;45870;42.528;26.740;2022-10-23T07:31:53;5.50;;;1.65;;
60018;SDS011;45870;42.528;26.740;2022-10-23T07:34:19;3.25;;;2.05;;
60018;SDS011;45870;42.528;26.740;2022-10-23T07:36:45;2.75;;;1.60;;
60018;SDS011;45870;42.528;26.740;2022-10-23T07:39:10;3.50;;;1.48;;
60018;SDS011;45870;42.528;26.740;2022-10-23T07:41:37;3.83;;;1.95;;
60018;SDS011;45870;42.528;26.740;2022-10-23T07:44:03;3.38;;;1.83;;
60018;SDS011;45870;42.528;26.740;2022-10-23T07:46:28;2.78;;;1.33;;
60018;SDS011;45870;42.528;26.740;2022-10-23T07:48:54;2.25;;;1.40;;
60018;SDS011;45870;42.528;26.740;2022-10-23T07:51:20;3.03;;;1.35;;
60018;SDS011;45870;42.528;26.740;2022-10-23T07:53:45;3.47;;;1.60;;
60018;SDS011;45870;42.528;26.740;2022-10-23T07:56:15;4.60;;;1.75;;
60018;SDS011;45870;42.528;26.740;2022-10-23T07:58:45;2.70;;;1.60;;
60018;SDS011;45870;42.528;26.740;2022-10-23T08:03:57;5.95;;;1.88;;
60018;SDS011;45870;42.528;26.740;2022-10-23T08:06:23;3.40;;;1.73;;
60018;SDS011;45870;42.528;26.740;2022-10-23T08:08:49;3.30;;;1.80;;
60018;SDS011;45870;42.528;26.740;2022-10-23T08:11:16;3.38;;;1.92;;
60018;SDS011;45870;42.528;26.740;2022-10-23T08:13:50;2.22;;;1.00;;
60018;SDS011;45870;42.528;26.740;2022-10-23T08:16:16;3.25;;;1.90;;
60018;SDS011;45870;42.528;26.740;2022-10-23T08:18:42;6.40;;;1.67;;
60018;SDS011;45870;42.528;26.740;2022-10-23T08:21:09;2.50;;;1.60;;
60018;SDS011;45870;42.528;26.740;2022-10-23T08:23:35;3.80;;;1.67;;
60018;SDS011;45870;42.528;26.740;2022-10-23T08:26:02;2.40;;;1.33;;
60018;SDS011;45870;42.528;26.740;2022-10-23T08:28:29;3.33;;;1.80;;
60018;SDS011;45870;42.528;26.740;2022-10-23T08:30:56;3.05;;;1.50;;
60018;SDS011;45870;42.528;26.740;2022-10-23T08:33:22;3.78;;;1.40;;
60018;SDS011;45870;42.528;26.740;2022-10-23T08:35:49;2.90;;;1.60;;
60018;SDS011;45870;42.528;26.740;2022-10-23T08:38:15;3.65;;;1.52;;
60018;SDS011;45870;42.528;26.740;2022-10-23T08:40:45;2.38;;;1.55;;
60018;SDS011;45870;42.528;26.740;2022-10-23T08:43:14;3.70;;;1.70;;
60018;SDS011;45870;42.528;26.740;2022-10-23T08:50:55;3.80;;;1.63;;
60018;SDS011;45870;42.528;26.740;2022-10-23T08:53:39;3.13;;;1.73;;
60018;SDS011;45870;42.528;26.740;2022-10-23T08:56:16;4.70;;;1.85;;
60018;SDS011;45870;42.528;26.740;2022-10-23T08:58:53;2.75;;;1.70;;
60018;SDS011;45870;42.528;26.740;2022-10-23T09:04:12;2.40;;;1.38;;
60018;SDS011;45870;42.528;26.740;2022-10-23T09:06:52;2.40;;;1.27;;
60018;SDS011;45870;42.528;26.740;2022-10-23T09:12:12;1.52;;;0.90;;
60018;SDS011;45870;42.528;26.740;2022-10-23T09:14:47;0.88;;;0.50;;
60018;SDS011;45870;42.528;26.740;2022-10-23T09:17:34;3.20;;;0.60;;
60018;SDS011;45870;42.528;26.740;2022-10-23T09:22:47;0.90;;;0.45;;
60018;SDS011;45870;42.528;26.740;2022-10-23T09:25:17;7.35;;;1.42;;
60018;SDS011;45870;42.528;26.740;2022-10-23T09:27:55;0.52;;;0.28;;
60018;SDS011;45870;42.528;26.740;2022-10-23T09:30:25;1.00;;;0.52;;
60018;SDS011;45870;42.528;26.740;2022-10-23T09:33:16;1.05;;;0.52;;
60018;SDS011;45870;42.528;26.740;2022-10-23T09:35:55;1.13;;;0.50;;
60018;SDS011;45870;42.528;26.740;2022-10-23T09:38:31;0.50;;;0.30;;
60018;SDS011;45870;42.528;26.740;2022-10-23T09:41:01;0.73;;;0.40;;
60018;SDS011;45870;42.528;26.740;2022-10-23T09:43:32;0.73;;;0.45;;
60018;SDS011;45870;42.528;26.740;2022-10-23T09:46:00;1.00;;;0.40;;
60018;SDS011;45870;42.528;26.740;2022-10-23T09:48:27;0.82;;;0.47;;
60018;SDS011;45870;42.528;26.740;2022-10-23T09:50:54;1.13;;;0.70;;
60018;SDS011;45870;42.528;26.740;2022-10-23T09:53:25;1.40;;;0.75;;
60018;SDS011;45870;42.528;26.740;2022-10-23T09:56:46;1.52;;;0.68;;
60018;SDS011;45870;42.528;26.740;2022-10-23T10:01:46;0.30;;;0.30;;
60018;SDS011;45870;42.528;26.740;2022-10-23T10:04:14;0.43;;;0.32;;
60018;SDS011;45870;42.528;26.740;2022-10-23T10:06:41;0.32;;;0.20;;
60018;SDS011;45870;42.528;26.740;2022-10-23T10:09:11;0.45;;;0.20;;
60018;SDS011;45870;42.528;26.740;2022-10-23T10:11:45;3.30;;;0.32;;
60018;SDS011;45870;42.528;26.740;2022-10-23T10:20:05;0.77;;;0.63;;
60018;SDS011;45870;42.528;26.740;2022-10-23T10:22:58;1.08;;;0.30;;
60018;SDS011;45870;42.528;26.740;2022-10-23T10:25:39;0.43;;;0.20;;
60018;SDS011;45870;42.528;26.740;2022-10-23T10:28:19;0.75;;;0.30;;
60018;SDS011;45870;42.528;26.740;2022-10-23T10:33:23;0.75;;;0.38;;
60018;SDS011;45870;42.528;26.740;2022-10-23T10:36:08;0.22;;;0.17;;
60018;SDS011;45870;42.528;26.740;2022-10-23T10:38:41;0.47;;;0.30;;
60018;SDS011;45870;42.528;26.740;2022-10-23T10:46:37;0.15;;;0.10;;
60018;SDS011;45870;42.528;26.740;2022-10-23T10:57:30;1.40;;;0.22;;
60018;SDS011;45870;42.528;26.740;2022-10-23T11:00:00;0.52;;;0.30;;
60018;SDS011;45870;42.528;26.740;2022-10-23T11:02:38;0.47;;;0.20;;
60018;SDS011;45870;42.528;26.740;2022-10-23T11:10:40;0.38;;;0.32;;
60018;SDS011;45870;42.528;26.740;2022-10-23T11:16:01;0.60;;;0.20;;
60018;SDS011;45870;42.528;26.740;2022-10-23T11:18:34;0.20;;;0.20;;
60018;SDS011;45870;42.528;26.740;2022-10-23T11:29:58;1.20;;;0.38;;
60018;SDS011;45870;42.528;26.740;2022-10-23T11:32:36;0.10;;;0.10;;
60018;SDS011;45870;42.528;26.740;2022-10-23T11:35:17;0.70;;;0.28;;
60018;SDS011;45870;42.528;26.740;2022-10-23T11:37:55;0.50;;;0.30;;
60018;SDS011;45870;42.528;26.740;2022-10-23T11:40:43;0.50;;;0.30;;
60018;SDS011;45870;42.528;26.740;2022-10-23T11:45:38;0.35;;;0.20;;
60018;SDS011;45870;42.528;26.740;2022-10-23T11:53:23;0.35;;;0.15;;
60018;SDS011;45870;42.528;26.740;2022-10-23T11:56:03;0.40;;;0.20;;
